Time;durP1;ratioP1;P1;durP2;ratioP2;P2;SDS_P1;SDS_P2;PMS_P1;PMS_P2;Temp;Humidity;BMP_temperature;BMP_pressure;BME280_temperature;BME280_humidity;BME280_pressure;Samples;Min_cycle;Max_cycle;Signal;HPM_P1;HPM_P2
2023/12/03 06:00:35;;;;;;;18.35;10.18;;;-1.50;76.40;;;;;;4752471;23;20337;-76
2023/12/03 06:02:37;;;;;;;16.20;9.77;;;-1.50;76.80;;;;;;4034942;29;20045;-76
2023/12/03 06:04:38;;;;;;;18.08;10.30;;;-1.50;76.30;;;;;;4059606;29;20081;-76
2023/12/03 06:06:39;;;;;;;16.05;9.57;;;-1.50;75.50;;;;;;4067951;29;20072;-76
2023/12/03 06:08:41;;;;;;;15.90;9.27;;;-1.50;75.30;;;;;;4054751;29;20101;-76
2023/12/03 06:10:43;;;;;;;15.77;9.63;;;-1.50;75.00;;;;;;4054316;29;20112;-79
2023/12/03 06:12:45;;;;;;;15.10;9.00;;;-1.60;74.70;;;;;;4039886;29;20382;-79
2023/12/03 06:14:46;;;;;;;15.50;9.15;;;-1.60;74.80;;;;;;4047539;29;20109;-79
2023/12/03 06:16:49;;;;;;;16.70;9.48;;;-1.70;74.90;;;;;;4049395;29;20053;-79
2023/12/03 06:18:51;;;;;;;16.02;9.13;;;-1.70;74.60;;;;;;4053214;29;20049;-76
2023/12/03 06:20:54;;;;;;;18.48;9.55;;;-1.80;75.20;;;;;;4065396;29;20056;-76
2023/12/03 06:22:56;;;;;;;16.08;9.15;;;-1.80;75.70;;;;;;4061197;29;20052;-79
2023/12/03 06:24:58;;;;;;;16.27;9.45;;;-1.80;75.80;;;;;;4048028;29;20048;-78
2023/12/03 06:27:00;;;;;;;16.15;9.32;;;-1.80;75.60;;;;;;4054203;29;20131;-80
2023/12/03 06:29:02;;;;;;;16.60;9.45;;;-1.90;75.80;;;;;;4054639;29;20566;-80
2023/12/03 06:31:05;;;;;;;18.67;10.07;;;-1.80;76.10;;;;;;4054686;29;20055;-80
2023/12/03 06:33:09;;;;;;;17.55;9.75;;;-1.90;75.40;;;;;;4054835;29;20490;-80
2023/12/03 06:35:14;;;;;;;16.13;9.30;;;-1.90;75.30;;;;;;4056092;29;20387;-76
2023/12/03 06:37:15;;;;;;;15.90;9.13;;;-1.90;74.70;;;;;;4060402;29;20398;-79
2023/12/03 06:39:16;;;;;;;16.65;9.32;;;-2.00;74.30;;;;;;4052519;29;20100;-79
2023/12/03 06:41:18;;;;;;;17.48;9.80;;;-2.00;74.20;;;;;;4051404;29;20057;-81
2023/12/03 06:43:20;;;;;;;18.23;9.60;;;-2.00;74.40;;;;;;4054557;29;20093;-75
2023/12/03 06:45:21;;;;;;;18.60;9.65;;;-2.00;75.30;;;;;;4053296;29;20053;-76
2023/12/03 06:47:23;;;;;;;18.85;10.07;;;-2.10;75.50;;;;;;4052514;29;20104;-81
2023/12/03 06:49:25;;;;;;;18.15;9.98;;;-2.10;75.40;;;;;;4054496;29;20044;-80
2023/12/03 06:51:27;;;;;;;16.90;9.65;;;-2.00;75.40;;;;;;4053027;29;20455;-79
2023/12/03 06:53:29;;;;;;;19.98;10.20;;;-2.10;75.50;;;;;;4054659;29;20048;-78
2023/12/03 06:55:30;;;;;;;22.27;12.60;;;-2.10;75.10;;;;;;4054538;29;20081;-82
2023/12/03 06:57:32;;;;;;;19.75;11.13;;;-2.10;75.00;;;;;;4053818;29;20059;-77
2023/12/03 06:59:33;;;;;;;17.90;9.98;;;-2.10;75.20;;;;;;4054934;29;20183;-81
2023/12/03 07:01:35;;;;;;;18.42;9.90;;;-2.10;74.70;;;;;;4055427;29;20056;-83
2023/12/03 07:03:37;;;;;;;15.13;8.45;;;-2.20;74.00;;;;;;4054884;29;20124;-75
2023/12/03 07:05:42;;;;;;;15.27;8.48;;;-2.20;73.50;;;;;;4045716;29;20053;-73
2023/12/03 07:07:43;;;;;;;17.02;9.27;;;-2.20;73.70;;;;;;4043183;29;20088;-75
2023/12/03 07:09:45;;;;;;;15.77;9.38;;;-2.30;73.40;;;;;;4052346;29;20044;-75
2023/12/03 07:11:47;;;;;;;15.70;9.13;;;-2.30;73.60;;;;;;4039825;29;20104;-76
2023/12/03 07:13:49;;;;;;;17.42;10.25;;;-2.30;74.00;;;;;;4054441;29;20056;-75
2023/12/03 07:15:51;;;;;;;17.27;9.60;;;-2.30;75.20;;;;;;4054451;29;20073;-75
2023/12/03 07:17:53;;;;;;;19.02;10.07;;;-2.30;75.20;;;;;;4053980;29;20171;-77
2023/12/03 07:19:55;;;;;;;17.95;10.02;;;-2.30;75.30;;;;;;4057115;29;20049;-75
2023/12/03 07:21:58;;;;;;;17.48;9.43;;;-2.30;75.40;;;;;;4040421;29;20587;-76
2023/12/03 07:24:00;;;;;;;18.38;10.38;;;-2.30;75.60;;;;;;4054796;29;20108;-78
2023/12/03 07:26:04;;;;;;;18.83;10.05;;;-2.30;75.70;;;;;;4053840;29;20052;-80
2023/12/03 07:28:06;;;;;;;18.17;9.93;;;-2.20;76.00;;;;;;4054157;29;20052;-76
2023/12/03 07:30:08;;;;;;;20.00;10.45;;;-2.20;75.90;;;;;;4036590;29;20072;-77
2023/12/03 07:32:10;;;;;;;17.48;10.27;;;-2.20;75.80;;;;;;4037736;29;20132;-77
2023/12/03 07:34:12;;;;;;;19.02;11.15;;;-2.20;75.90;;;;;;4053854;29;20508;-75
2023/12/03 07:36:14;;;;;;;18.77;10.10;;;-2.20;75.50;;;;;;4054576;29;20156;-78
2023/12/03 07:38:17;;;;;;;18.25;9.70;;;-2.20;75.30;;;;;;4054248;29;20107;-77
2023/12/03 07:40:18;;;;;;;17.02;10.07;;;-2.20;75.30;;;;;;4052988;29;20044;-76
2023/12/03 07:42:20;;;;;;;18.63;11.02;;;-2.20;75.20;;;;;;4052657;29;20486;-75
2023/12/03 07:44:22;;;;;;;20.83;12.10;;;-2.20;75.00;;;;;;4053828;29;20374;-74
2023/12/03 07:46:24;;;;;;;23.55;13.07;;;-2.20;74.70;;;;;;4053957;29;20049;-77
2023/12/03 07:48:26;;;;;;;21.65;12.77;;;-2.20;75.00;;;;;;4051509;29;20052;-76
2023/12/03 07:50:28;;;;;;;23.60;13.25;;;-2.20;75.00;;;;;;4053710;29;20056;-76
2023/12/03 07:52:31;;;;;;;23.98;13.30;;;-2.20;74.80;;;;;;4036468;29;20061;-78
2023/12/03 07:54:33;;;;;;;21.20;12.20;;;-2.20;75.00;;;;;;4052864;29;20047;-78
2023/12/03 07:56:36;;;;;;;22.15;12.88;;;-2.20;75.40;;;;;;4053984;29;20064;-77
2023/12/03 07:58:37;;;;;;;22.50;13.23;;;-2.20;75.40;;;;;;4050347;29;20587;-77
2023/12/03 08:00:40;;;;;;;21.40;12.50;;;-2.20;74.60;;;;;;4053918;29;20064;-76
2023/12/03 08:02:42;;;;;;;23.35;13.02;;;-2.10;74.80;;;;;;4054621;29;20096;-76
2023/12/03 08:04:43;;;;;;;21.27;12.05;;;-2.10;74.90;;;;;;4037327;29;20120;-75
2023/12/03 08:06:45;;;;;;;22.75;12.27;;;-2.10;75.00;;;;;;4049162;29;20044;-81
2023/12/03 08:08:47;;;;;;;22.98;12.63;;;-2.10;75.00;;;;;;4040725;29;20113;-81
2023/12/03 08:10:51;;;;;;;21.40;12.43;;;-2.10;75.30;;;;;;4049013;29;20094;-81
2023/12/03 08:12:53;;;;;;;20.70;12.25;;;-2.10;75.20;;;;;;4059327;29;20059;-83
2023/12/03 08:14:55;;;;;;;20.73;12.85;;;-2.10;74.20;;;;;;4047608;29;20056;-78
2023/12/03 08:16:57;;;;;;;20.60;11.20;;;-2.10;74.00;;;;;;4061509;29;20077;-79
2023/12/03 08:18:58;;;;;;;20.92;11.65;;;-2.20;74.00;;;;;;4067265;29;20120;-79
2023/12/03 08:21:00;;;;;;;18.98;10.77;;;-2.10;74.60;;;;;;4064947;29;20048;-76
2023/12/03 08:23:02;;;;;;;19.35;10.98;;;-2.10;74.80;;;;;;4064496;29;20078;-77
2023/12/03 08:25:06;;;;;;;17.98;9.73;;;-2.20;74.60;;;;;;4063674;29;20054;-76
2023/12/03 08:27:10;;;;;;;26.10;11.30;;;-2.20;74.70;;;;;;4056866;29;20086;-76
2023/12/03 08:29:12;;;;;;;20.00;10.45;;;-2.20;75.00;;;;;;4053040;29;20478;-77
2023/12/03 08:31:14;;;;;;;21.05;11.48;;;-2.20;75.00;;;;;;4058372;29;20091;-78
2023/12/03 08:33:17;;;;;;;18.77;11.10;;;-2.20;75.30;;;;;;4028177;29;20124;-82
2023/12/03 08:35:19;;;;;;;24.00;11.70;;;-2.20;75.20;;;;;;4056300;29;20045;-80
2023/12/03 08:37:22;;;;;;;21.23;12.82;;;-2.10;75.30;;;;;;4055266;29;20052;-80
2023/12/03 08:39:31;;;;;;;23.67;12.55;;;-2.10;75.40;;;;;;4058103;29;20104;-81
2023/12/03 08:41:33;;;;;;;22.38;11.88;;;-2.10;75.50;;;;;;4056972;29;20108;-79
2023/12/03 08:43:37;;;;;;;23.05;12.52;;;-2.10;75.60;;;;;;4049767;29;20045;-78
2023/12/03 08:45:44;;;;;;;22.08;12.07;;;-2.10;75.60;;;;;;4056848;29;20044;-78
2023/12/03 08:47:45;;;;;;;24.88;12.48;;;-2.00;75.80;;;;;;4054156;29;20132;-79
2023/12/03 08:49:52;;;;;;;20.92;12.05;;;-1.90;76.00;;;;;;4023964;29;20070;-78
2023/12/03 08:51:54;;;;;;;19.27;11.10;;;-2.00;75.80;;;;;;4052057;29;20052;-79
2023/12/03 08:53:56;;;;;;;18.92;10.85;;;-1.90;75.80;;;;;;4056856;29;20053;-76
2023/12/03 08:55:59;;;;;;;22.13;12.20;;;-1.80;76.10;;;;;;4040024;29;20049;-78
2023/12/03 08:58:02;;;;;;;26.13;14.05;;;-1.80;75.90;;;;;;4043802;29;20064;-78
2023/12/03 09:00:15;;;;;;;22.65;12.63;;;-1.80;75.70;;;;;;4053676;29;20076;-80
2023/12/03 09:02:22;;;;;;;22.08;12.27;;;-1.70;75.80;;;;;;4047739;29;20510;-81
2023/12/03 09:04:24;;;;;;;21.90;12.52;;;-1.70;75.90;;;;;;4039768;29;20084;-77
2023/12/03 09:06:26;;;;;;;19.23;10.73;;;-1.70;75.60;;;;;;4049555;29;20045;-75
2023/12/03 09:08:28;;;;;;;19.40;11.00;;;-1.70;75.60;;;;;;4052369;29;20048;-76
2023/12/03 09:10:30;;;;;;;22.10;12.40;;;-1.60;75.80;;;;;;4053918;29;20567;-74
2023/12/03 09:12:32;;;;;;;23.35;12.85;;;-1.60;75.60;;;;;;4049084;29;20044;-78
2023/12/03 09:14:34;;;;;;;25.20;14.18;;;-1.60;75.80;;;;;;4051557;29;20056;-77
2023/12/03 09:16:38;;;;;;;23.05;12.65;;;-1.60;75.80;;;;;;4054429;29;20112;-80
2023/12/03 09:18:39;;;;;;;22.45;12.82;;;-1.60;75.80;;;;;;4052580;29;20108;-77
2023/12/03 09:20:43;;;;;;;22.75;12.73;;;-1.60;75.90;;;;;;4053371;29;20056;-78
2023/12/03 09:22:46;;;;;;;22.35;12.38;;;-1.50;76.30;;;;;;4055221;29;20112;-78
2023/12/03 09:24:49;;;;;;;22.38;13.02;;;-1.50;76.20;;;;;;4052937;29;20053;-78
2023/12/03 09:26:51;;;;;;;21.73;13.35;;;-1.40;76.20;;;;;;4050804;29;20052;-76
2023/12/03 09:28:53;;;;;;;23.27;13.93;;;-1.50;76.40;;;;;;4053192;29;20487;-76
2023/12/03 09:30:54;;;;;;;26.02;15.38;;;-1.50;76.50;;;;;;4054418;29;20068;-78
2023/12/03 09:32:58;;;;;;;24.17;14.52;;;-1.40;77.10;;;;;;4049394;29;20057;-75
2023/12/03 09:35:01;;;;;;;25.42;13.95;;;-1.40;77.00;;;;;;4053554;29;20057;-77
2023/12/03 09:37:03;;;;;;;25.38;15.48;;;-1.40;77.30;;;;;;4054003;29;20052;-75
2023/12/03 09:39:07;;;;;;;27.00;16.05;;;-1.30;77.80;;;;;;4053741;29;20061;-79
2023/12/03 09:41:14;;;;;;;27.10;16.65;;;-1.30;77.80;;;;;;4055494;29;20052;-79
2023/12/03 09:43:18;;;;;;;28.80;16.70;;;-1.30;77.80;;;;;;4054866;29;20052;-78
2023/12/03 09:45:24;;;;;;;29.33;17.60;;;-1.20;77.90;;;;;;4055898;29;20131;-79
2023/12/03 09:47:28;;;;;;;;;;;-1.20;77.90;;;;;;4057179;29;20049;-80
2023/12/03 09:49:33;;;;;;;25.45;14.80;;;-1.10;77.70;;;;;;4055608;29;19923;-77
2023/12/03 09:51:37;;;;;;;31.77;17.70;;;-1.00;77.40;;;;;;4053236;29;20455;-79
2023/12/03 09:53:44;;;;;;;44.88;24.10;;;-1.00;77.20;;;;;;4052919;29;20127;-75
2023/12/03 09:55:49;;;;;;;42.05;23.52;;;-1.00;76.80;;;;;;4055341;29;20041;-78
2023/12/03 09:57:56;;;;;;;40.22;21.73;;;-0.90;76.50;;;;;;4069287;29;20577;-79
2023/12/03 10:00:01;;;;;;;32.08;17.55;;;-0.90;76.50;;;;;;4052475;29;20513;-83
2023/12/03 10:02:03;;;;;;;28.42;16.35;;;-0.90;76.50;;;;;;4057424;29;20049;-84
2023/12/03 10:04:05;;;;;;;27.50;14.70;;;-0.80;76.50;;;;;;4057239;29;20072;-78
2023/12/03 10:06:17;;;;;;;23.17;13.95;;;-0.80;76.70;;;;;;4046877;29;20045;-77
2023/12/03 10:08:21;;;;;;;23.65;13.25;;;-0.80;77.00;;;;;;4044500;29;20063;-78
2023/12/03 10:10:29;;;;;;;20.63;12.55;;;-0.80;77.10;;;;;;4051009;29;20044;-78
2023/12/03 10:12:41;;;;;;;23.30;13.40;;;-0.70;77.20;;;;;;4055871;29;20056;-79
2023/12/03 10:14:45;;;;;;;21.98;12.40;;;-0.70;77.00;;;;;;4055965;29;20085;-79
2023/12/03 10:16:49;;;;;;;20.05;10.98;;;-0.60;77.10;;;;;;4055720;29;20048;-76
2023/12/03 10:18:51;;;;;;;17.15;10.18;;;-0.70;76.90;;;;;;4055247;29;20602;-78
2023/12/03 10:21:07;;;;;;;18.02;10.20;;;-0.60;76.60;;;;;;4052953;29;20494;-75
2023/12/03 10:23:15;;;;;;;17.25;9.95;;;-0.60;76.40;;;;;;4036223;29;20081;-76
2023/12/03 10:25:28;;;;;;;29.02;15.00;;;-0.50;76.30;;;;;;4036167;29;20044;-76
2023/12/03 10:27:30;;;;;;;17.98;9.95;;;-0.50;76.70;;;;;;4036734;29;20065;-77
2023/12/03 10:29:32;;;;;;;18.42;10.40;;;-0.50;76.20;;;;;;4052937;29;20060;-77
2023/12/03 10:31:34;;;;;;;17.20;9.80;;;-0.50;75.70;;;;;;4055705;29;20346;-80
2023/12/03 10:33:38;;;;;;;13.00;7.90;;;-0.40;75.50;;;;;;4056504;29;20056;-79
2023/12/03 10:35:40;;;;;;;15.95;9.50;;;-0.50;73.40;;;;;;4055530;29;20049;-80
2023/12/03 10:37:42;;;;;;;16.83;9.20;;;-0.40;74.30;;;;;;4046366;29;20120;-81
2023/12/03 10:39:45;;;;;;;16.83;9.90;;;-0.40;74.90;;;;;;4044312;29;20140;-78
2023/12/03 10:41:49;;;;;;;19.30;10.25;;;-0.40;74.10;;;;;;4038264;29;20091;-80
2023/12/03 10:43:52;;;;;;;19.25;10.57;;;-0.40;76.40;;;;;;4054218;29;20522;-76
2023/12/03 10:45:53;;;;;;;18.40;10.52;;;-0.40;76.80;;;;;;4053078;29;20468;-74
2023/12/03 10:48:00;;;;;;;18.13;10.30;;;-0.40;77.80;;;;;;4035774;29;20056;-74
2023/12/03 10:50:03;;;;;;;19.60;11.15;;;-0.40;76.60;;;;;;4051575;29;20056;-77
2023/12/03 10:52:05;;;;;;;20.35;11.60;;;-0.40;76.70;;;;;;4051738;29;20067;-75
2023/12/03 10:54:08;;;;;;;22.65;12.48;;;-0.30;76.10;;;;;;4053305;29;20554;-75
2023/12/03 10:56:11;;;;;;;23.17;13.00;;;-0.30;75.90;;;;;;4051999;29;20060;-76
2023/12/03 10:58:19;;;;;;;19.60;11.35;;;-0.30;75.90;;;;;;4052957;29;20395;-77
2023/12/03 11:00:21;;;;;;;19.40;11.30;;;-0.30;75.70;;;;;;4050040;29;20386;-77
2023/12/03 11:02:26;;;;;;;20.58;12.30;;;-0.20;75.20;;;;;;4052968;29;20495;-82
2023/12/03 11:04:39;;;;;;;20.17;12.48;;;-0.20;75.10;;;;;;4054135;29;20766;-79
2023/12/03 11:06:42;;;;;;;22.73;12.27;;;-0.10;75.60;;;;;;4052542;29;20550;-80
2023/12/03 11:08:46;;;;;;;20.80;11.73;;;-0.10;75.90;;;;;;4052479;29;20487;-80
2023/12/03 11:10:49;;;;;;;22.90;12.48;;;-0.20;75.70;;;;;;4052675;29;20055;-78
2023/12/03 11:12:53;;;;;;;21.50;12.40;;;-0.20;75.50;;;;;;4052584;29;20471;-76
2023/12/03 11:14:55;;;;;;;20.58;11.93;;;-0.20;75.10;;;;;;4053190;29;20109;-76
2023/12/03 11:17:07;;;;;;;21.88;12.32;;;-0.20;75.00;;;;;;4051083;29;20136;-73
2023/12/03 11:19:16;;;;;;;21.50;12.25;;;-0.20;75.00;;;;;;4051568;29;20104;-75
2023/12/03 11:21:28;;;;;;;21.15;12.13;;;-0.20;75.10;;;;;;4052162;29;20049;-74
2023/12/03 11:24:01;;;;;;;22.48;13.05;;;-0.20;75.50;;;;;;4051302;29;20135;-76
2023/12/03 11:26:09;;;;;;;23.13;13.32;;;-0.10;75.70;;;;;;4052821;29;20065;-79
2023/12/03 11:28:13;;;;;;;20.73;12.43;;;-0.10;76.20;;;;;;4050668;29;20541;-77
2023/12/03 11:30:15;;;;;;;21.98;13.23;;;0.00;76.20;;;;;;4051405;29;20104;-78
2023/12/03 11:32:16;;;;;;;21.95;12.98;;;0.00;76.20;;;;;;4052750;29;20048;-77
2023/12/03 11:34:18;;;;;;;24.60;14.65;;;0.00;76.40;;;;;;4052161;29;20055;-75
2023/12/03 11:36:20;;;;;;;24.45;13.73;;;0.10;76.50;;;;;;4051900;29;20145;-77
2023/12/03 11:38:32;;;;;;;22.98;14.15;;;0.20;76.20;;;;;;4051936;29;20052;-78
2023/12/03 11:40:35;;;;;;;22.42;13.70;;;0.30;76.80;;;;;;4043437;29;20052;-77
2023/12/03 11:42:43;;;;;;;22.30;12.77;;;0.40;76.20;;;;;;4051652;29;20490;-78
2023/12/03 11:44:46;;;;;;;23.48;13.82;;;0.40;75.60;;;;;;4053591;29;20076;-78
2023/12/03 11:46:50;;;;;;;24.30;14.07;;;0.50;75.40;;;;;;4051683;29;20048;-78
2023/12/03 11:48:52;;;;;;;25.60;13.52;;;0.60;75.60;;;;;;4051288;29;20057;-80
2023/12/03 11:50:56;;;;;;;23.13;13.50;;;0.70;75.90;;;;;;4051145;29;20395;-77
2023/12/03 11:52:57;;;;;;;23.38;13.98;;;0.80;75.40;;;;;;4052075;29;20048;-78
2023/12/03 11:55:06;;;;;;;25.08;13.95;;;0.70;74.20;;;;;;4051651;29;20108;-77
2023/12/03 11:57:15;;;;;;;25.30;13.60;;;0.70;73.60;;;;;;4052131;29;20455;-75
2023/12/03 11:59:17;;;;;;;22.10;13.32;;;0.80;73.00;;;;;;4049130;29;20064;-80
2023/12/03 12:01:20;;;;;;;25.35;14.30;;;0.80;72.80;;;;;;4051635;29;20490;-77
2023/12/03 12:03:23;;;;;;;24.75;14.70;;;0.90;73.10;;;;;;4050919;29;20048;-78
2023/12/03 12:05:24;;;;;;;24.35;14.15;;;0.90;72.50;;;;;;4051749;29;20597;-75
2023/12/03 12:07:25;;;;;;;22.27;13.13;;;0.90;72.60;;;;;;4051742;29;20059;-80
2023/12/03 12:09:46;;;;;;;22.50;13.65;;;1.00;72.10;;;;;;4142932;28;20518;-82
2023/12/03 12:11:48;;;;;;;22.85;13.27;;;1.10;72.30;;;;;;4125593;28;20195;-80
2023/12/03 12:13:50;;;;;;;23.17;14.27;;;1.20;73.00;;;;;;4119053;28;20141;-85
2023/12/03 12:15:55;;;;;;;22.58;13.88;;;1.40;73.80;;;;;;4123765;28;20488;-80
2023/12/03 12:17:57;;;;;;;21.38;13.80;;;1.50;72.80;;;;;;4124981;28;20335;-79
2023/12/03 12:19:59;;;;;;;21.50;12.93;;;1.60;73.30;;;;;;4134849;28;20100;-80
2023/12/03 12:22:01;;;;;;;23.48;13.40;;;1.70;72.90;;;;;;4124471;28;20145;-79
2023/12/03 12:24:03;;;;;;;23.27;13.80;;;1.80;72.40;;;;;;4124774;28;20062;-80
2023/12/03 12:26:07;;;;;;;23.58;13.95;;;1.90;72.00;;;;;;4125233;28;20050;-82
2023/12/03 12:28:09;;;;;;;22.33;13.43;;;2.00;71.70;;;;;;4125503;28;20054;-83
2023/12/03 12:30:14;;;;;;;21.92;13.55;;;2.10;71.30;;;;;;4126704;28;20108;-82
2023/12/03 12:32:16;;;;;;;22.85;13.75;;;2.30;71.40;;;;;;4124910;28;20054;-84
2023/12/03 12:34:20;;;;;;;22.05;12.65;;;2.40;71.30;;;;;;4125857;28;20053;-78
2023/12/03 12:36:22;;;;;;;18.90;11.98;;;2.50;71.00;;;;;;4112030;28;20051;-76
2023/12/03 12:38:25;;;;;;;21.08;12.40;;;2.80;70.50;;;;;;4120573;28;20047;-82
2023/12/03 12:40:25;;;;;;;19.45;12.13;;;3.00;69.30;;;;;;4124649;28;20055;-81
2023/12/03 12:42:29;;;;;;;19.00;11.65;;;3.30;67.30;;;;;;4125203;28;20088;-78
2023/12/03 12:44:40;;;;;;;18.55;11.27;;;3.60;66.60;;;;;;4119774;28;20106;-79
2023/12/03 12:46:53;;;;;;;17.80;11.23;;;4.40;64.80;;;;;;4108511;28;20049;-80
2023/12/03 12:49:12;;;;;;;16.98;11.27;;;8.70;56.40;;;;;;4120966;28;20071;-80
2023/12/03 12:51:22;;;;;;;17.95;11.77;;;13.20;44.90;;;;;;4131373;28;20448;-80
2023/12/03 12:53:24;;;;;;;17.38;11.50;;;16.20;37.80;;;;;;4126334;28;20154;-80
2023/12/03 12:55:29;;;;;;;16.65;11.48;;;18.40;33.20;;;;;;4124887;28;20054;-79
2023/12/03 12:57:32;;;;;;;14.85;11.15;;;20.20;29.90;;;;;;4124229;28;20047;-80
2023/12/03 12:59:34;;;;;;;15.45;10.73;;;21.70;27.40;;;;;;4121292;28;20055;-82
2023/12/03 13:01:36;;;;;;;14.50;10.95;;;23.00;25.70;;;;;;4124403;28;20104;-77
2023/12/03 13:03:39;;;;;;;15.50;11.00;;;23.90;24.10;;;;;;4124214;28;20054;-76
2023/12/03 13:05:43;;;;;;;13.95;10.65;;;24.50;23.30;;;;;;4116646;28;20051;-77
2023/12/03 13:07:44;;;;;;;12.85;10.48;;;25.10;22.70;;;;;;4108812;28;20055;-79
2023/12/03 13:09:46;;;;;;;13.63;9.60;;;25.70;22.20;;;;;;4108866;28;20063;-78
2023/12/03 13:11:48;;;;;;;13.15;10.02;;;26.20;21.80;;;;;;4113356;28;20384;-78
2023/12/03 13:13:51;;;;;;;12.30;9.77;;;26.70;21.10;;;;;;4126601;28;20062;-77
2023/12/03 13:15:53;;;;;;;11.95;9.70;;;27.00;20.90;;;;;;4124023;28;20069;-78
2023/12/03 13:17:55;;;;;;;12.18;9.85;;;27.80;20.10;;;;;;4119916;28;20105;-78
2023/12/03 13:19:57;;;;;;;13.77;10.27;;;27.90;19.80;;;;;;4112908;28;20430;-82
2023/12/03 13:21:59;;;;;;;12.50;9.93;;;27.90;19.10;;;;;;4105500;28;20066;-78
2023/12/03 13:24:00;;;;;;;11.82;9.95;;;28.20;19.20;;;;;;4103687;28;20059;-80
2023/12/03 13:26:02;;;;;;;11.30;9.18;;;28.40;19.00;;;;;;4127891;28;20048;-77
2023/12/03 13:28:04;;;;;;;11.88;9.43;;;29.00;19.50;;;;;;4117309;28;20332;-78
2023/12/03 13:30:08;;;;;;;11.45;9.68;;;30.00;18.10;;;;;;4167008;28;20053;-77
2023/12/03 13:32:10;;;;;;;13.15;10.85;;;30.70;17.70;;;;;;4115942;28;20074;-80
2023/12/03 13:34:12;;;;;;;19.55;15.70;;;32.00;17.40;;;;;;4108393;28;20051;-81
2023/12/03 13:36:14;;;;;;;15.75;12.43;;;31.80;16.90;;;;;;4107460;28;20070;-82
2023/12/03 13:38:16;;;;;;;13.35;11.10;;;32.30;16.80;;;;;;4112159;28;20051;-77
2023/12/03 13:40:19;;;;;;;12.05;9.98;;;32.60;16.60;;;;;;4100432;28;20047;-78
2023/12/03 13:42:19;;;;;;;11.80;10.05;;;32.60;16.50;;;;;;4099463;28;20089;-80
2023/12/03 13:44:21;;;;;;;12.38;10.75;;;32.80;16.40;;;;;;4137989;28;20047;-78
2023/12/03 13:46:25;;;;;;;12.70;10.73;;;32.60;16.00;;;;;;4116322;28;20481;-78
2023/12/03 13:48:26;;;;;;;12.15;10.70;;;32.10;15.50;;;;;;4121563;28;20051;-77
2023/12/03 13:50:28;;;;;;;11.85;10.43;;;31.60;16.30;;;;;;4119377;28;20112;-76
2023/12/03 13:52:30;;;;;;;12.35;10.68;;;31.90;16.10;;;;;;4108882;28;20435;-78
2023/12/03 13:54:31;;;;;;;14.80;11.10;;;30.90;16.50;;;;;;4110418;28;20047;-80
2023/12/03 13:56:33;;;;;;;11.68;10.48;;;30.20;16.60;;;;;;4110396;28;20044;-79
2023/12/03 13:58:34;;;;;;;12.85;10.85;;;29.90;16.80;;;;;;4104303;28;20097;-78
2023/12/03 14:00:36;;;;;;;12.57;10.82;;;30.00;16.60;;;;;;4111299;28;20042;-78
2023/12/03 14:02:39;;;;;;;13.25;11.32;;;29.60;16.90;;;;;;4141712;28;20050;-77
2023/12/03 14:04:41;;;;;;;13.13;10.88;;;29.40;17.00;;;;;;4129659;28;20161;-79
2023/12/03 14:06:42;;;;;;;13.35;11.02;;;29.80;17.10;;;;;;4111689;28;20055;-80
2023/12/03 14:08:44;;;;;;;15.82;11.88;;;29.10;16.80;;;;;;4117600;28;20555;-83
2023/12/03 14:10:46;;;;;;;15.60;11.80;;;29.70;17.10;;;;;;4112103;28;20047;-77
2023/12/03 14:12:47;;;;;;;13.20;11.65;;;29.10;16.80;;;;;;4116462;28;20444;-78
2023/12/03 14:14:49;;;;;;;14.30;11.40;;;28.50;16.80;;;;;;4100226;28;20105;-79
2023/12/03 14:16:54;;;;;;;14.90;12.63;;;27.70;17.20;;;;;;4107332;28;20055;-78
2023/12/03 14:18:57;;;;;;;15.90;12.57;;;27.20;17.60;;;;;;4141986;28;20095;-77
2023/12/03 14:20:59;;;;;;;15.13;12.02;;;27.10;18.10;;;;;;4097884;28;20051;-78
2023/12/03 14:23:01;;;;;;;13.32;11.65;;;26.60;18.60;;;;;;4115498;28;20061;-76
2023/12/03 14:25:03;;;;;;;13.52;11.73;;;25.70;18.50;;;;;;4111691;28;20047;-77
2023/12/03 14:27:05;;;;;;;14.40;12.00;;;24.20;19.60;;;;;;4112854;28;20055;-80
2023/12/03 14:29:06;;;;;;;14.63;12.02;;;22.30;21.40;;;;;;4123251;28;20031;-80
2023/12/03 14:31:09;;;;;;;13.98;12.15;;;19.90;23.20;;;;;;4110352;28;20446;-83
2023/12/03 14:33:11;;;;;;;15.05;12.77;;;18.20;25.50;;;;;;4106124;28;20081;-83
2023/12/03 14:35:15;;;;;;;13.70;11.38;;;16.70;27.40;;;;;;4116207;28;20047;-80
2023/12/03 14:37:17;;;;;;;14.48;11.95;;;15.60;28.70;;;;;;4105704;28;20503;-79
2023/12/03 14:39:19;;;;;;;16.23;11.45;;;14.50;30.00;;;;;;4108003;28;20055;-83
2023/12/03 14:41:21;;;;;;;14.55;11.65;;;13.80;31.50;;;;;;4135027;28;20088;-77
2023/12/03 14:43:22;;;;;;;14.88;11.85;;;13.10;32.20;;;;;;4110494;28;20066;-83
2023/12/03 14:45:24;;;;;;;15.82;11.60;;;12.90;33.60;;;;;;4116584;28;20113;-80
2023/12/03 14:47:25;;;;;;;15.18;11.35;;;13.10;33.80;;;;;;4130006;28;20040;-80
2023/12/03 14:49:27;;;;;;;15.07;11.23;;;12.80;34.40;;;;;;4118319;28;20042;-79
2023/12/03 14:51:30;;;;;;;17.08;12.52;;;12.40;35.10;;;;;;4118557;28;20099;-83
2023/12/03 14:53:32;;;;;;;16.60;12.07;;;12.40;35.60;;;;;;4112036;28;20516;-79
2023/12/03 14:55:34;;;;;;;17.88;13.25;;;11.90;36.10;;;;;;4135758;28;20043;-81
2023/12/03 14:57:36;;;;;;;16.85;11.70;;;11.50;37.00;;;;;;4136033;28;20050;-81
2023/12/03 14:59:39;;;;;;;16.33;11.25;;;10.90;37.60;;;;;;4115820;28;20051;-79
2023/12/03 15:01:40;;;;;;;17.90;11.65;;;10.30;38.70;;;;;;4123047;28;20047;-83
2023/12/03 15:03:42;;;;;;;16.27;12.13;;;10.10;39.60;;;;;;4116528;28;20043;-80
2023/12/03 15:05:44;;;;;;;16.98;11.48;;;9.80;40.40;;;;;;4134656;28;20043;-78
2023/12/03 15:07:48;;;;;;;16.98;12.00;;;9.50;41.30;;;;;;4106387;28;20530;-80
2023/12/03 15:09:51;;;;;;;19.83;13.40;;;9.00;42.50;;;;;;4106369;28;20085;-79
2023/12/03 15:11:53;;;;;;;17.52;12.52;;;8.60;43.40;;;;;;4112210;28;20450;-79
2023/12/03 15:13:55;;;;;;;20.48;13.77;;;8.10;44.60;;;;;;4112150;28;20443;-80
2023/12/03 15:15:57;;;;;;;22.00;15.48;;;7.70;46.10;;;;;;4111497;28;20077;-80
2023/12/03 15:17:59;;;;;;;22.23;15.85;;;7.20;47.50;;;;;;4113597;28;20050;-78
2023/12/03 15:20:01;;;;;;;23.60;15.93;;;7.00;48.40;;;;;;4113853;28;20081;-78
2023/12/03 15:22:03;;;;;;;20.98;14.82;;;6.40;49.70;;;;;;4113102;28;20104;-79
2023/12/03 15:24:08;;;;;;;20.05;13.68;;;6.10;50.70;;;;;;4114181;28;20147;-79
2023/12/03 15:26:11;;;;;;;21.35;13.73;;;5.70;51.10;;;;;;4112795;28;20077;-79
2023/12/03 15:28:13;;;;;;;20.67;13.52;;;5.40;52.20;;;;;;4112914;28;20451;-79
2023/12/03 15:30:20;;;;;;;19.83;13.90;;;5.00;53.60;;;;;;4112772;28;20058;-79
2023/12/03 15:32:21;;;;;;;20.02;13.18;;;4.90;54.50;;;;;;4112221;28;20070;-78
2023/12/03 15:34:23;;;;;;;19.17;12.98;;;4.70;55.30;;;;;;4112089;28;20055;-79
2023/12/03 15:36:25;;;;;;;19.67;12.73;;;4.50;55.80;;;;;;4105765;28;20050;-81
2023/12/03 15:38:27;;;;;;;21.88;12.90;;;4.30;56.40;;;;;;4112675;28;20102;-78
2023/12/03 15:40:31;;;;;;;19.40;12.32;;;4.00;57.00;;;;;;4111766;28;20116;-79
2023/12/03 15:42:32;;;;;;;26.55;12.50;;;3.80;57.60;;;;;;4111519;28;20167;-79
2023/12/03 15:44:34;;;;;;;22.75;13.88;;;3.70;58.20;;;;;;4111146;28;20112;-78
2023/12/03 15:46:35;;;;;;;22.67;13.75;;;3.60;58.90;;;;;;4111174;28;20542;-80
2023/12/03 15:48:37;;;;;;;24.15;14.68;;;3.50;59.50;;;;;;4111940;28;20108;-79
2023/12/03 15:50:39;;;;;;;25.45;15.77;;;3.30;60.50;;;;;;4111558;28;20058;-79
2023/12/03 15:52:41;;;;;;;26.95;16.58;;;3.20;60.40;;;;;;4110509;28;20059;-77
2023/12/03 15:54:46;;;;;;;20.98;12.50;;;3.10;60.90;;;;;;4109038;28;20797;-77
2023/12/03 15:56:49;;;;;;;18.58;11.77;;;3.00;61.20;;;;;;4114609;28;20082;-77
2023/12/03 15:58:51;;;;;;;21.23;12.80;;;2.90;61.90;;;;;;4111686;28;20054;-79
2023/12/03 16:00:52;;;;;;;19.77;12.75;;;2.80;62.60;;;;;;4111716;28;20116;-79
2023/12/03 16:02:57;;;;;;;21.45;13.05;;;2.70;63.10;;;;;;4111879;28;20050;-77
2023/12/03 16:04:59;;;;;;;23.50;14.65;;;2.60;63.40;;;;;;4111902;28;20057;-76
2023/12/03 16:07:01;;;;;;;23.05;14.52;;;2.40;63.40;;;;;;4111191;28;20046;-77
2023/12/03 16:09:02;;;;;;;26.00;16.08;;;2.40;64.00;;;;;;4111014;28;20101;-77
2023/12/03 16:11:04;;;;;;;31.75;19.60;;;2.30;64.30;;;;;;4123618;28;20133;-78
2023/12/03 16:13:08;;;;;;;28.95;18.42;;;2.20;64.30;;;;;;4123698;28;20053;-78
2023/12/03 16:15:10;;;;;;;27.55;17.35;;;2.10;64.70;;;;;;4112015;28;20054;-78
2023/12/03 16:17:13;;;;;;;28.80;17.15;;;2.00;65.30;;;;;;4112103;28;20055;-77
2023/12/03 16:19:15;;;;;;;26.88;17.20;;;2.00;64.90;;;;;;4111784;28;20072;-76
2023/12/03 16:21:18;;;;;;;24.05;14.93;;;1.90;65.20;;;;;;4111474;28;20054;-76
2023/12/03 16:23:20;;;;;;;26.35;16.10;;;1.80;65.70;;;;;;4111439;28;20142;-77
2023/12/03 16:25:22;;;;;;;27.23;16.52;;;1.80;66.10;;;;;;4111618;28;20473;-78
2023/12/03 16:27:24;;;;;;;22.98;14.27;;;1.60;66.40;;;;;;4116124;28;20107;-79